createdAt,value
2023-03-11T00:00:13.523Z,100.00
2023-03-11T00:04:15.127Z,100.00
2023-03-11T00:08:19.777Z,100.00
2023-03-11T00:12:22.031Z,100.00
2023-03-11T00:16:23.622Z,100.00
2023-03-11T00:20:29.250Z,100.00
2023-03-11T00:24:30.880Z,100.00
2023-03-11T00:28:52.731Z,100.00
2023-03-11T00:33:15.813Z,100.00
2023-03-11T00:37:37.263Z,100.00
2023-03-11T00:41:39.127Z,100.00
2023-03-11T00:45:41.301Z,100.00
2023-03-11T00:49:43.113Z,100.00
2023-03-11T00:53:45.026Z,100.00
2023-03-11T00:57:46.994Z,100.00
2023-03-11T01:01:48.940Z,100.00
2023-03-11T01:05:50.558Z,100.00
2023-03-11T01:09:52.196Z,100.00
2023-03-11T01:13:53.703Z,100.00
2023-03-11T01:17:56.577Z,100.00
2023-03-11T01:21:58.302Z,100.00
2023-03-11T01:25:59.996Z,100.00
2023-03-11T01:30:02.341Z,100.00
2023-03-11T01:34:04.198Z,100.00
2023-03-11T01:38:05.778Z,100.00
2023-03-11T01:42:27.134Z,100.00
2023-03-11T01:46:51.638Z,100.00
2023-03-11T01:50:56.630Z,100.00
2023-03-11T01:54:58.399Z,100.00
2023-03-11T01:59:00.430Z,100.00
2023-03-11T02:03:09.274Z,100.00
2023-03-11T02:07:12.374Z,100.00
2023-03-11T02:11:26.262Z,100.00
2023-03-11T02:15:28.473Z,100.00
2023-03-11T02:19:35.008Z,100.00
2023-03-11T02:23:50.794Z,100.00
2023-03-11T02:27:55.287Z,100.00
2023-03-11T02:32:04.772Z,100.00
2023-03-11T02:36:07.387Z,100.00
2023-03-11T02:40:38.354Z,100.00
2023-03-11T02:44:44.140Z,100.00
2023-03-11T02:48:47.449Z,100.00
2023-03-11T02:52:49.999Z,100.00
2023-03-11T02:56:51.706Z,100.00
2023-03-11T03:00:53.836Z,100.00
2023-03-11T03:04:55.634Z,100.00
2023-03-11T03:08:57.510Z,100.00
2023-03-11T03:12:59.929Z,100.00
2023-03-11T03:17:02.041Z,100.00
2023-03-11T03:21:04.424Z,100.00
2023-03-11T03:25:07.013Z,100.00
2023-03-11T03:29:08.673Z,100.00
2023-03-11T03:33:10.702Z,100.00
2023-03-11T03:37:12.655Z,100.00
2023-03-11T03:41:18.249Z,100.00
2023-03-11T03:45:20.121Z,100.00
2023-03-11T03:49:23.510Z,100.00
2023-03-11T03:53:46.578Z,100.00
2023-03-11T03:58:08.907Z,100.00
2023-03-11T04:02:31.509Z,100.00
2023-03-11T04:06:53.428Z,100.00
2023-03-11T04:11:15.157Z,97.52
2023-03-11T04:15:39.552Z,96.34
2023-03-11T04:20:01.739Z,95.68
2023-03-11T04:24:24.159Z,95.59
2023-03-11T04:28:46.161Z,95.65
2023-03-11T04:32:49.514Z,95.25
2023-03-11T04:36:55.289Z,94.08
2023-03-11T04:41:04.351Z,94.66
2023-03-11T04:45:07.217Z,91.89
2023-03-11T04:49:09.840Z,90.39
2023-03-11T04:53:12.076Z,89.60
2023-03-11T04:57:14.011Z,87.77
2023-03-11T05:01:18.688Z,87.10
2023-03-11T05:05:20.671Z,87.43
2023-03-11T05:09:22.679Z,85.73
2023-03-11T05:13:24.464Z,84.17
2023-03-11T05:17:27.535Z,82.56
2023-03-11T05:21:29.955Z,79.98
2023-03-11T05:25:32.237Z,78.94
2023-03-11T05:29:54.041Z,84.81
2023-03-11T05:34:17.604Z,87.52
2023-03-11T05:38:40.028Z,87.42
2023-03-11T05:43:02.296Z,89.46
2023-03-11T05:47:27.003Z,87.83
2023-03-11T05:51:44.544Z,88.20
2023-03-11T05:55:56.124Z,88.08
2023-03-11T05:59:58.194Z,89.29
2023-03-11T06:04:00.432Z,89.79
2023-03-11T06:08:02.509Z,87.48
2023-03-11T06:12:05.032Z,89.66
2023-03-11T06:16:21.362Z,90.70
2023-03-11T06:20:23.122Z,87.70
2023-03-11T06:24:25.893Z,84.71
2023-03-11T06:28:28.774Z,84.80
2023-03-11T06:32:31.034Z,86.00
2023-03-11T06:36:33.162Z,86.47
2023-03-11T06:40:34.716Z,88.81
2023-03-11T06:44:36.759Z,88.63
2023-03-11T06:48:38.670Z,89.23
2023-03-11T06:52:40.394Z,87.83
2023-03-11T06:56:42.949Z,87.08
2023-03-11T07:00:44.700Z,84.42
2023-03-11T07:04:49.528Z,82.16
2023-03-11T07:08:53.757Z,82.32
2023-03-11T07:12:55.198Z,88.27
2023-03-11T07:16:58.213Z,88.07
2023-03-11T07:21:08.077Z,86.46
2023-03-11T07:25:09.830Z,90.01
2023-03-11T07:29:11.232Z,84.82
2023-03-11T07:33:13.276Z,85.46
2023-03-11T07:37:15.392Z,85.59
2023-03-11T07:41:16.926Z,87.13
2023-03-11T07:45:18.442Z,88.07
2023-03-11T07:49:20.054Z,84.71
2023-03-11T07:53:21.541Z,86.69
2023-03-11T07:57:22.992Z,91.33
2023-03-11T08:01:27.094Z,91.08
2023-03-11T08:05:28.534Z,91.46
2023-03-11T08:09:29.995Z,89.25
2023-03-11T08:13:31.448Z,87.21
2023-03-11T08:17:33.071Z,85.42
2023-03-11T08:21:34.502Z,85.99
2023-03-11T08:25:38.801Z,84.57
2023-03-11T08:29:40.211Z,84.72
2023-03-11T08:33:44.053Z,84.09
2023-03-11T08:37:45.621Z,81.86
2023-03-11T08:41:47.069Z,82.20
2023-03-11T08:45:48.596Z,83.59
2023-03-11T08:49:50.096Z,86.30
2023-03-11T08:53:52.403Z,84.37
2023-03-11T08:57:54.321Z,83.75
2023-03-11T09:01:55.760Z,83.02
2023-03-11T09:06:01.722Z,83.73
2023-03-11T09:10:04.216Z,83.68
2023-03-11T09:14:05.880Z,86.25
2023-03-11T09:18:09.065Z,83.28
2023-03-11T09:22:10.604Z,83.67
2023-03-11T09:26:12.698Z,83.45
2023-03-11T09:30:14.297Z,83.14
2023-03-11T09:34:16.328Z,83.39
2023-03-11T09:38:17.837Z,82.86
2023-03-11T09:42:35.324Z,82.60
2023-03-11T09:46:39.576Z,78.66
2023-03-11T09:50:48.697Z,76.52
2023-03-11T09:54:55.569Z,75.42
2023-03-11T09:59:04.754Z,79.36
2023-03-11T10:03:17.603Z,77.59
2023-03-11T10:07:25.905Z,79.50
2023-03-11T10:11:44.746Z,76.93
2023-03-11T10:15:56.475Z,79.50
2023-03-11T10:20:47.622Z,77.55
2023-03-11T10:25:01.068Z,78.89
2023-03-11T10:29:16.588Z,77.92
2023-03-11T10:33:28.800Z,75.44
2023-03-11T10:37:48.384Z,73.54
2023-03-11T10:42:10.744Z,71.29
2023-03-11T10:46:23.061Z,71.63
2023-03-11T10:50:24.711Z,66.35
2023-03-11T10:54:35.945Z,69.12
2023-03-11T10:58:47.809Z,74.33
2023-03-11T11:02:59.931Z,68.41
2023-03-11T11:07:26.530Z,68.82
2023-03-11T11:11:27.950Z,62.77
2023-03-11T11:15:33.901Z,64.42
2023-03-11T11:19:36.049Z,64.14
2023-03-11T11:23:42.501Z,61.27
2023-03-11T11:27:55.980Z,61.76
2023-03-11T11:32:15.536Z,62.94
2023-03-11T11:36:18.468Z,62.06
2023-03-11T11:40:30.459Z,64.32
2023-03-11T11:44:34.742Z,60.29
2023-03-11T11:48:49.386Z,60.27
2023-03-11T11:53:04.586Z,56.53
2023-03-11T11:57:14.902Z,50.62
2023-03-11T12:02:05.003Z,50.10
2023-03-11T12:06:28.301Z,50.75
2023-03-11T12:10:32.498Z,53.77
2023-03-11T12:14:43.582Z,52.27
2023-03-11T12:18:51.456Z,55.43
2023-03-11T12:23:34.744Z,53.34
2023-03-11T12:27:51.597Z,56.05
2023-03-11T12:31:55.075Z,53.92
2023-03-11T12:35:58.671Z,53.32
2023-03-11T12:40:00.290Z,54.05
2023-03-11T12:44:04.788Z,52.79
2023-03-11T12:48:32.751Z,50.53
2023-03-11T12:52:52.601Z,50.38
2023-03-11T12:57:01.209Z,52.01
2023-03-11T13:01:33.225Z,53.43
2023-03-11T13:06:09.751Z,51.91
2023-03-11T13:10:15.867Z,50.62
2023-03-11T13:14:31.496Z,50.24
2023-03-11T13:18:33.216Z,50.46
2023-03-11T13:22:51.816Z,48.61
2023-03-11T13:27:04.901Z,47.94
2023-03-11T13:31:34.425Z,48.75
2023-03-11T13:35:51.670Z,47.81
2023-03-11T13:40:31.652Z,49.33
2023-03-11T13:44:40.075Z,51.29
2023-03-11T13:48:46.376Z,50.36
2023-03-11T13:52:50.321Z,48.71
2023-03-11T13:56:56.982Z,48.19
2023-03-11T14:01:00.849Z,47.63
2023-03-11T14:05:07.060Z,48.97
2023-03-11T14:09:19.409Z,51.10
2023-03-11T14:13:22.211Z,47.35
2023-03-11T14:17:23.634Z,46.56
2023-03-11T14:21:25.124Z,45.42
2023-03-11T14:25:31.007Z,45.25
2023-03-11T14:29:40.415Z,46.61
2023-03-11T14:33:41.795Z,45.25
2023-03-11T14:37:43.224Z,43.59
2023-03-11T14:41:44.813Z,42.79
2023-03-11T14:45:48.768Z,43.77
2023-03-11T14:49:51.943Z,45.22
2023-03-11T14:54:25.425Z,45.33
2023-03-11T14:58:34.652Z,44.24
2023-03-11T15:02:48.529Z,43.42
2023-03-11T15:06:50.623Z,44.49
2023-03-11T15:11:12.459Z,44.66
2023-03-11T15:15:24.715Z,45.27
2023-03-11T15:19:28.933Z,46.27
2023-03-11T15:23:30.614Z,46.11
2023-03-11T15:27:37.278Z,47.28
2023-03-11T15:31:40.217Z,48.67
2023-03-11T15:35:49.556Z,49.21
2023-03-11T15:39:52.221Z,49.84
2023-03-11T15:43:54.780Z,50.89
2023-03-11T15:47:56.225Z,50.06
2023-03-11T15:52:02.140Z,51.47
2023-03-11T15:56:22.114Z,51.93
2023-03-11T16:00:24.489Z,51.93
2023-03-11T16:04:26.275Z,53.02
2023-03-11T16:08:27.836Z,52.65
2023-03-11T16:12:29.293Z,52.47
2023-03-11T16:16:31.143Z,53.27
2023-03-11T16:20:37.698Z,55.42
2023-03-11T16:24:39.173Z,64.02
2023-03-11T16:28:41.082Z,74.02
2023-03-11T16:32:43.317Z,78.93
2023-03-11T16:36:44.869Z,82.20
2023-03-11T16:40:56.718Z,84.96
2023-03-11T16:44:58.216Z,86.25
2023-03-11T16:48:59.634Z,84.36
2023-03-11T16:53:01.091Z,81.63
2023-03-11T16:57:03.018Z,83.35
2023-03-11T17:01:04.576Z,81.80
2023-03-11T17:05:07.743Z,81.53
2023-03-11T17:09:09.597Z,79.54
2023-03-11T17:13:17.040Z,76.89
2023-03-11T17:17:20.857Z,77.24
2023-03-11T17:21:22.444Z,78.91
2023-03-11T17:25:24.008Z,75.20
2023-03-11T17:29:25.775Z,75.43
2023-03-11T17:33:27.372Z,73.70
2023-03-11T17:37:28.892Z,73.76
2023-03-11T17:41:30.375Z,75.04
2023-03-11T17:45:31.782Z,77.57
2023-03-11T17:49:33.549Z,80.50
2023-03-11T17:53:36.968Z,81.22
2023-03-11T17:57:45.129Z,79.51
2023-03-11T18:01:47.225Z,82.67
2023-03-11T18:05:56.446Z,84.81
2023-03-11T18:09:57.930Z,85.85
2023-03-11T18:13:59.446Z,86.04
2023-03-11T18:18:01.186Z,84.99
2023-03-11T18:22:02.769Z,82.43
2023-03-11T18:26:07.514Z,87.00
2023-03-11T18:30:11.211Z,88.42
2023-03-11T18:34:14.119Z,89.85
2023-03-11T18:38:16.038Z,86.63
2023-03-11T18:42:17.621Z,88.31
2023-03-11T18:46:19.386Z,88.04
2023-03-11T18:50:21.330Z,89.75
2023-03-11T18:54:22.950Z,89.21
2023-03-11T18:58:24.439Z,89.06
2023-03-11T19:02:26.139Z,87.73
2023-03-11T19:06:28.785Z,89.42
2023-03-11T19:10:30.351Z,90.14
2023-03-11T19:14:31.781Z,90.04
2023-03-11T19:18:33.839Z,90.60
2023-03-11T19:22:36.098Z,92.73
2023-03-11T19:26:46.616Z,91.95
2023-03-11T19:30:52.541Z,91.14
2023-03-11T19:34:53.982Z,94.77
2023-03-11T19:38:55.444Z,98.00
2023-03-11T19:42:59.019Z,98.57
2023-03-11T19:47:00.475Z,97.81
2023-03-11T19:51:08.315Z,97.07
2023-03-11T19:55:10.196Z,96.09
2023-03-11T19:59:12.170Z,98.34
2023-03-11T20:03:15.001Z,99.62
2023-03-11T20:07:16.631Z,97.55
2023-03-11T20:11:18.200Z,97.75
2023-03-11T20:15:19.642Z,94.09
2023-03-11T20:19:21.315Z,97.28
2023-03-11T20:23:22.786Z,96.72
2023-03-11T20:27:24.257Z,97.33
2023-03-11T20:31:27.439Z,98.97
2023-03-11T20:35:28.874Z,99.50
2023-03-11T20:39:30.376Z,99.42
2023-03-11T20:43:38.498Z,99.68
2023-03-11T20:47:40.116Z,100.00
2023-03-11T20:51:43.671Z,100.00
2023-03-11T20:55:45.292Z,100.00
2023-03-11T20:59:46.873Z,100.00
2023-03-11T21:03:48.749Z,100.00
2023-03-11T21:07:50.428Z,100.00
2023-03-11T21:11:51.937Z,100.00
2023-03-11T21:15:55.190Z,100.00
2023-03-11T21:19:57.250Z,98.75
2023-03-11T21:23:58.889Z,97.65
2023-03-11T21:28:00.354Z,95.01
2023-03-11T21:32:01.816Z,95.17
2023-03-11T21:36:03.581Z,94.80
2023-03-11T21:40:07.446Z,93.80
2023-03-11T21:44:09.058Z,92.04
2023-03-11T21:48:11.284Z,92.70
2023-03-11T21:52:12.933Z,95.22
2023-03-11T21:56:15.561Z,97.40
2023-03-11T22:00:17.241Z,98.97
2023-03-11T22:04:18.955Z,97.99
2023-03-11T22:08:20.429Z,99.74
2023-03-11T22:12:22.196Z,99.22
2023-03-11T22:16:24.433Z,99.31
2023-03-11T22:20:26.166Z,100.00
2023-03-11T22:24:27.605Z,100.00
2023-03-11T22:28:29.252Z,97.27
2023-03-11T22:32:30.778Z,96.81
2023-03-11T22:36:32.335Z,95.32
2023-03-11T22:40:35.054Z,95.47
2023-03-11T22:44:36.611Z,95.08
2023-03-11T22:48:38.025Z,96.22
2023-03-11T22:52:39.488Z,92.88
2023-03-11T22:56:41.009Z,87.53
2023-03-11T23:00:44.111Z,86.29
2023-03-11T23:04:45.801Z,84.29
2023-03-11T23:08:47.562Z,79.91
2023-03-11T23:12:49.194Z,80.58
2023-03-11T23:16:50.666Z,83.11
2023-03-11T23:20:52.092Z,81.58
2023-03-11T23:24:53.597Z,72.32
2023-03-11T23:28:55.944Z,77.84
2023-03-11T23:32:57.862Z,75.82
2023-03-11T23:36:59.335Z,72.17
2023-03-11T23:41:01.270Z,76.58
2023-03-11T23:45:03.147Z,73.09
2023-03-11T23:49:04.617Z,67.58
2023-03-11T23:53:06.135Z,70.04
2023-03-11T23:57:07.738Z,69.89
